Time;durP1;ratioP1;P1;durP2;ratioP2;P2;SDS_P1;SDS_P2;PMS_P1;PMS_P2;Temp;Humidity;BMP_temperature;BMP_pressure;BME280_temperature;BME280_humidity;BME280_pressure;Samples;Min_cycle;Max_cycle;Signal;HPM_P1;HPM_P2
2023/01/05 00:02:22;;;;;;;1.40;0.60;;;;;;;8.29;100.00;98747.75;104621;1288;23154;-35
2023/01/05 00:04:48;;;;;;;1.10;0.80;;;;;;;8.34;100.00;98745.27;104694;1291;23025;-31
2023/01/05 00:07:14;;;;;;;0.90;0.70;;;;;;;8.26;100.00;98742.09;104637;1291;22826;-32
2023/01/05 00:09:40;;;;;;;1.70;1.20;;;;;;;8.29;100.00;98738.86;104745;1292;22760;-36
2023/01/05 00:24:40;;;;;;;0.80;0.70;;;;;;;-73.60;39.40;39489.34;102546;1292;1002980;-35
2023/01/05 00:27:06;;;;;;;1.40;0.80;;;;;;;-128.00;-1.00;-1.00;101089;1304;1004856;-35
2023/01/05 00:29:32;;;;;;;3.00;1.40;;;;;;;-128.00;-1.00;-1.00;100943;1304;1004795;-31
2023/01/05 00:31:58;;;;;;;1.70;1.30;;;;;;;-128.00;-1.00;-1.00;101078;1303;1004013;-34
2023/01/05 00:34:23;;;;;;;1.00;0.80;;;;;;;-128.00;-1.00;-1.00;101142;1304;1004714;-35
2023/01/05 00:36:49;;;;;;;1.50;1.10;;;;;;;-128.00;-1.00;-1.00;101124;1304;1004130;-30
2023/01/05 00:39:15;;;;;;;5.40;1.20;;;;;;;-128.00;-1.00;-1.00;101065;1303;1004314;-31
2023/01/05 00:41:41;;;;;;;1.50;0.70;;;;;;;-128.00;-1.00;-1.00;101015;1304;1004248;-35
2023/01/05 00:44:06;;;;;;;2.20;1.10;;;;;;;-128.00;-1.00;-1.00;101004;1303;1005586;-36
2023/01/05 00:46:32;;;;;;;2.10;1.20;;;;;;;-128.00;-1.00;-1.00;101048;1304;1004286;-36
2023/01/05 00:48:57;;;;;;;1.40;1.00;;;;;;;-128.00;-1.00;-1.00;101056;1304;1004901;-40
2023/01/05 00:51:23;;;;;;;1.90;1.30;;;;;;;-128.00;-1.00;-1.00;101073;1304;1004970;-36
2023/01/05 00:53:49;;;;;;;2.10;1.00;;;;;;;-128.00;-1.00;-1.00;101134;1304;1004694;-32
2023/01/05 00:56:15;;;;;;;4.20;1.30;;;;;;;-128.00;-1.00;-1.00;101068;1304;1005141;-33
2023/01/05 00:58:40;;;;;;;1.30;1.00;;;;;;;-128.00;-1.00;-1.00;101115;1304;1004298;-36
2023/01/05 01:01:10;;;;;;;2.60;1.30;;;;;;;-128.00;-1.00;-1.00;101076;1304;1005256;-37
2023/01/05 01:03:36;;;;;;;1.70;1.30;;;;;;;-128.00;-1.00;-1.00;101119;1304;1005142;-33
2023/01/05 01:06:01;;;;;;;2.10;1.20;;;;;;;-128.00;-1.00;-1.00;101140;1304;1004030;-32
2023/01/05 01:08:27;;;;;;;0.90;0.80;;;;;;;-128.00;-1.00;-1.00;101110;1304;1004829;-36
2023/01/05 01:10:53;;;;;;;2.70;1.30;;;;;;;-128.00;-1.00;-1.00;101075;1304;1004613;-36
2023/01/05 01:13:18;;;;;;;5.10;1.30;;;;;;;-128.00;-1.00;-1.00;101029;1304;1004759;-37
2023/01/05 01:15:44;;;;;;;1.40;1.10;;;;;;;-128.00;-1.00;-1.00;101029;1304;1004823;-35
2023/01/05 01:18:10;;;;;;;1.90;1.60;;;;;;;-128.00;-1.00;-1.00;101119;1304;1004365;-33
2023/01/05 01:20:36;;;;;;;1.00;0.80;;;;;;;-128.00;-1.00;-1.00;101184;1304;1005232;-34
2023/01/05 01:23:03;;;;;;;1.00;0.80;;;;;;;-128.00;-1.00;-1.00;101164;1304;1005009;-37
2023/01/05 01:25:29;;;;;;;2.00;1.40;;;;;;;-128.00;-1.00;-1.00;101002;1304;1004439;-31
2023/01/05 01:27:55;;;;;;;1.90;1.20;;;;;;;-128.00;-1.00;-1.00;101036;1304;1004202;-35
2023/01/05 01:30:21;;;;;;;1.30;1.00;;;;;;;-128.00;-1.00;-1.00;101088;1304;1004151;-31
2023/01/05 01:32:46;;;;;;;1.10;0.80;;;;;;;-128.00;-1.00;-1.00;101114;1304;1004844;-36
2023/01/05 01:35:12;;;;;;;1.10;0.60;;;;;;;-128.00;-1.00;-1.00;101048;1304;1004743;-37
2023/01/05 01:37:38;;;;;;;0.40;0.30;;;;;;;-128.00;-1.00;-1.00;101022;1304;1003864;-31
2023/01/05 01:40:06;;;;;;;2.50;0.80;;;;;;;-128.00;-1.00;-1.00;101116;1304;1004672;-38
2023/01/05 01:42:32;;;;;;;0.60;0.30;;;;;;;-128.00;-1.00;-1.00;101160;1300;1004627;-32
2023/01/05 01:44:59;;;;;;;0.60;0.40;;;;;;;-128.00;-1.00;-1.00;101207;1304;1005002;-36
2023/01/05 01:47:41;;;;;;;1.30;0.60;;;;;;;-128.00;-1.00;-1.00;101041;1304;1004417;-31
2023/01/05 01:50:18;;;;;;;0.70;0.40;;;;;;;-128.00;-1.00;-1.00;101108;1304;1004275;-35
2023/01/05 01:52:44;;;;;;;1.10;0.50;;;;;;;-128.00;-1.00;-1.00;101143;1304;1004077;-36
2023/01/05 01:55:10;;;;;;;11.50;0.60;;;;;;;-128.00;-1.00;-1.00;101243;1304;1005052;-36
2023/01/05 01:57:36;;;;;;;0.00;0.00;;;;;;;-128.00;-1.00;-1.00;101174;1304;1003749;-34
2023/01/05 02:00:03;;;;;;;6.70;0.30;;;;;;;-128.00;-1.00;-1.00;101070;1304;1004793;-37
2023/01/05 02:02:29;;;;;;;0.20;0.10;;;;;;;-128.00;-1.00;-1.00;101073;1304;1004862;-36
2023/01/05 02:04:56;;;;;;;0.80;0.10;;;;;;;-128.00;-1.00;-1.00;101129;1304;1004619;-32
2023/01/05 02:07:22;;;;;;;0.60;0.30;;;;;;;-128.00;-1.00;-1.00;101066;1304;1004323;-32
2023/01/05 02:09:48;;;;;;;1.50;0.30;;;;;;;-128.00;-1.00;-1.00;100989;1304;1003312;-34
2023/01/05 02:12:45;;;;;;;0.70;0.30;;;;;;;-128.00;-1.00;-1.00;101108;1304;1004498;-38
2023/01/05 02:15:31;;;;;;;0.40;0.20;;;;;;;-128.00;-1.00;-1.00;100982;1304;1004453;-35
2023/01/05 02:18:18;;;;;;;0.90;0.30;;;;;;;-128.00;-1.00;-1.00;101058;1304;1004291;-31
2023/01/05 02:21:05;;;;;;;0.50;0.20;;;;;;;-128.00;-1.00;-1.00;101071;1304;1004540;-35
2023/01/05 02:23:50;;;;;;;0.80;0.10;;;;;;;-128.00;-1.00;-1.00;101103;1304;1004808;-35
2023/01/05 02:26:39;;;;;;;4.20;0.70;;;;;;;-128.00;-1.00;-1.00;101022;1304;1004410;-34
2023/01/05 02:29:36;;;;;;;2.80;0.30;;;;;;;-128.00;-1.00;-1.00;101189;1304;1004479;-36
2023/01/05 02:32:26;;;;;;;0.40;0.20;;;;;;;-128.00;-1.00;-1.00;101031;1304;1004523;-32
2023/01/05 02:35:02;;;;;;;2.90;0.20;;;;;;;-128.00;-1.00;-1.00;101060;1304;1004476;-31
2023/01/05 02:37:42;;;;;;;0.20;0.10;;;;;;;-128.00;-1.00;-1.00;101031;1304;1005314;-36
2023/01/05 02:40:19;;;;;;;0.30;0.20;;;;;;;-128.00;-1.00;-1.00;101068;1304;1004855;-35
2023/01/05 02:42:45;;;;;;;0.00;0.00;;;;;;;-128.00;-1.00;-1.00;100999;1304;1004428;-35
2023/01/05 02:45:11;;;;;;;3.50;0.60;;;;;;;-128.00;-1.00;-1.00;100992;1304;1004681;-31
2023/01/05 02:47:42;;;;;;;0.10;0.10;;;;;;;-128.00;-1.00;-1.00;101020;1304;1003542;-35
2023/01/05 02:50:18;;;;;;;1.30;0.10;;;;;;;-128.00;-1.00;-1.00;101023;1304;1007560;-31
2023/01/05 02:52:58;;;;;;;0.40;0.20;;;;;;;-128.00;-1.00;-1.00;101228;1304;1004428;-35
2023/01/05 02:55:28;;;;;;;0.30;0.20;;;;;;;-128.00;-1.00;-1.00;101052;1304;1004640;-31
2023/01/05 02:57:58;;;;;;;0.20;0.00;;;;;;;-128.00;-1.00;-1.00;100987;1304;1005144;-31
2023/01/05 03:00:33;;;;;;;1.00;0.20;;;;;;;-128.00;-1.00;-1.00;101033;1304;1004853;-32
2023/01/05 03:03:06;;;;;;;0.60;0.30;;;;;;;-128.00;-1.00;-1.00;100987;1304;1004554;-32
2023/01/05 03:05:35;;;;;;;0.40;0.30;;;;;;;-128.00;-1.00;-1.00;100992;1304;1004856;-35
2023/01/05 03:15:30;;;;;;;0.60;0.30;;;;;;;-128.00;-1.00;-1.00;100951;1298;1003518;-33
2023/01/05 03:17:57;;;;;;;0.20;0.20;;;;;;;-128.00;-1.00;-1.00;101079;1304;1004503;-35
2023/01/05 03:20:26;;;;;;;1.40;0.10;;;;;;;-128.00;-1.00;-1.00;101030;1297;1003930;-33
2023/01/05 03:38:10;;;;;;;0.20;0.20;;;;;;;-128.00;-1.00;-1.00;101104;1304;1004424;-33
2023/01/05 03:40:37;;;;;;;1.40;0.10;;;;;;;-128.00;-1.00;-1.00;101001;1304;1004580;-34
2023/01/05 03:43:03;;;;;;;0.80;0.20;;;;;;;-128.00;-1.00;-1.00;100853;1304;1004800;-38
2023/01/05 03:45:35;;;;;;;0.70;0.20;;;;;;;-128.00;-1.00;-1.00;100979;1304;1004032;-38
2023/01/05 03:48:01;;;;;;;0.90;0.40;;;;;;;-128.00;-1.00;-1.00;101031;1304;1004317;-34
2023/01/05 03:50:27;;;;;;;0.90;0.30;;;;;;;-128.00;-1.00;-1.00;101107;1304;1003489;-37
2023/01/05 03:52:53;;;;;;;0.50;0.30;;;;;;;-128.00;-1.00;-1.00;101179;1304;1004458;-36
2023/01/05 03:55:19;;;;;;;1.60;0.60;;;;;;;-128.00;-1.00;-1.00;101082;1304;1005035;-33
2023/01/05 03:57:45;;;;;;;1.80;0.30;;;;;;;-128.00;-1.00;-1.00;100992;1304;1004319;-33
2023/01/05 04:00:11;;;;;;;1.50;0.30;;;;;;;-128.00;-1.00;-1.00;101067;1304;1004070;-36
2023/01/05 04:02:37;;;;;;;1.40;0.40;;;;;;;-128.00;-1.00;-1.00;100871;1304;1004310;-32
2023/01/05 04:05:03;;;;;;;0.60;0.30;;;;;;;-128.00;-1.00;-1.00;101051;1304;1004695;-35
2023/01/05 04:07:28;;;;;;;0.60;0.20;;;;;;;-128.00;-1.00;-1.00;101052;1304;1004503;-32
2023/01/05 04:09:54;;;;;;;0.90;0.30;;;;;;;-128.00;-1.00;-1.00;101082;1304;1004311;-33
2023/01/05 04:12:20;;;;;;;1.40;0.60;;;;;;;-128.00;-1.00;-1.00;100985;1304;1004520;-32
2023/01/05 04:14:46;;;;;;;9.30;0.40;;;;;;;-128.00;-1.00;-1.00;101023;1304;1004779;-33
2023/01/05 04:17:11;;;;;;;1.60;0.40;;;;;;;-128.00;-1.00;-1.00;100966;1304;1004258;-33
2023/01/05 04:19:37;;;;;;;1.30;0.40;;;;;;;-128.00;-1.00;-1.00;101118;1304;1004680;-32
2023/01/05 04:22:03;;;;;;;0.80;0.10;;;;;;;-128.00;-1.00;-1.00;100981;1304;1004934;-35
2023/01/05 04:24:29;;;;;;;8.10;0.90;;;;;;;-128.00;-1.00;-1.00;101006;1304;1004461;-33
2023/01/05 04:26:54;;;;;;;0.40;0.20;;;;;;;-128.00;-1.00;-1.00;101105;1304;1004938;-33
2023/01/05 04:29:20;;;;;;;1.00;0.20;;;;;;;-128.00;-1.00;-1.00;101014;1304;1003507;-33
2023/01/05 04:31:46;;;;;;;1.40;0.10;;;;;;;-128.00;-1.00;-1.00;100976;1304;1004804;-35
2023/01/05 04:34:11;;;;;;;3.00;0.10;;;;;;;-128.00;-1.00;-1.00;101089;1304;1003470;-37
2023/01/05 05:14:51;;;;;;;0.90;0.20;;;;;;;-101.26;19.20;19731.81;101267;1306;1545966;-37
2023/01/05 05:17:16;;;;;;;2.70;0.50;;;;;;;-128.00;-1.00;-1.00;100594;1304;1003751;-34
2023/01/05 05:19:42;;;;;;;0.10;0.00;;;;;;;-128.00;-1.00;-1.00;101138;1304;1004116;-37
2023/01/05 05:22:08;;;;;;;1.90;0.10;;;;;;;-128.00;-1.00;-1.00;101032;1304;1004586;-36
2023/01/05 05:24:34;;;;;;;2.10;0.20;;;;;;;-128.00;-1.00;-1.00;101039;1304;1004936;-34
2023/01/05 05:27:00;;;;;;;0.30;0.10;;;;;;;-128.00;-1.00;-1.00;101215;1304;1004522;-35
2023/01/05 05:29:26;;;;;;;0.40;0.10;;;;;;;-128.00;-1.00;-1.00;101236;1304;1004167;-37
2023/01/05 05:31:51;;;;;;;0.90;0.10;;;;;;;-128.00;-1.00;-1.00;100960;1304;1004429;-34
2023/01/05 05:34:17;;;;;;;0.40;0.20;;;;;;;-128.00;-1.00;-1.00;100895;1304;1004814;-34
2023/01/05 05:36:44;;;;;;;3.80;0.10;;;;;;;-128.00;-1.00;-1.00;100888;1304;1004464;-34
2023/01/05 05:39:13;;;;;;;1.30;0.00;;;;;;;-128.00;-1.00;-1.00;100954;1300;1004346;-38
2023/01/05 05:41:39;;;;;;;0.10;0.10;;;;;;;-128.00;-1.00;-1.00;100931;1304;1004825;-35
2023/01/05 05:44:05;;;;;;;0.60;0.10;;;;;;;-128.00;-1.00;-1.00;100862;1304;1004574;-32
2023/01/05 05:46:31;;;;;;;0.00;0.00;;;;;;;-128.00;-1.00;-1.00;100939;1304;1004509;-31
2023/01/05 05:48:57;;;;;;;0.10;0.00;;;;;;;-128.00;-1.00;-1.00;101057;1304;1004541;-35
2023/01/05 05:51:23;;;;;;;0.40;0.10;;;;;;;-128.00;-1.00;-1.00;100951;1304;1004657;-32
2023/01/05 05:53:50;;;;;;;0.70;0.30;;;;;;;-128.00;-1.00;-1.00;101044;1304;1005434;-35
2023/01/05 05:56:15;;;;;;;0.60;0.20;;;;;;;-128.00;-1.00;-1.00;100754;1304;1004356;-33
2023/01/05 05:58:41;;;;;;;1.10;0.30;;;;;;;-128.00;-1.00;-1.00;101035;1304;1004530;-33
2023/01/05 06:01:07;;;;;;;2.80;0.30;;;;;;;-128.00;-1.00;-1.00;101068;1304;1005537;-33
2023/01/05 06:03:33;;;;;;;2.60;0.20;;;;;;;-128.00;-1.00;-1.00;100927;1304;1004127;-36
2023/01/05 06:05:59;;;;;;;0.30;0.20;;;;;;;-128.00;-1.00;-1.00;101088;1304;1004373;-36
2023/01/05 06:08:26;;;;;;;1.50;0.30;;;;;;;-128.00;-1.00;-1.00;101081;1304;1004919;-36
2023/01/05 06:10:51;;;;;;;0.20;0.10;;;;;;;-128.00;-1.00;-1.00;100905;1304;1004540;-35
2023/01/05 06:13:17;;;;;;;0.40;0.10;;;;;;;-128.00;-1.00;-1.00;101015;1304;1004649;-36
2023/01/05 06:15:43;;;;;;;5.40;0.30;;;;;;;-128.00;-1.00;-1.00;100966;1304;1003648;-34
2023/01/05 06:18:09;;;;;;;1.10;0.10;;;;;;;-128.00;-1.00;-1.00;100922;1304;1004391;-37
2023/01/05 06:20:34;;;;;;;2.90;0.60;;;;;;;-128.00;-1.00;-1.00;100967;1304;1005928;-33
2023/01/05 06:23:00;;;;;;;0.70;0.20;;;;;;;-128.00;-1.00;-1.00;100949;1304;1004558;-36
2023/01/05 06:25:26;;;;;;;1.50;0.60;;;;;;;-128.00;-1.00;-1.00;100967;1304;1004201;-33
2023/01/05 06:27:52;;;;;;;0.30;0.20;;;;;;;-128.00;-1.00;-1.00;101140;1304;1005343;-33
2023/01/05 06:30:18;;;;;;;0.70;0.20;;;;;;;-128.00;-1.00;-1.00;101052;1304;1005016;-32
2023/01/05 06:32:43;;;;;;;6.30;0.50;;;;;;;-128.00;-1.00;-1.00;100994;1304;1004881;-40
2023/01/05 06:35:09;;;;;;;1.30;0.50;;;;;;;-128.00;-1.00;-1.00;101023;1304;1004999;-32
2023/01/05 06:37:36;;;;;;;0.90;0.30;;;;;;;-128.00;-1.00;-1.00;101015;1304;1004059;-32
2023/01/05 06:40:02;;;;;;;0.40;0.20;;;;;;;-128.00;-1.00;-1.00;101053;1304;1004398;-32
2023/01/05 06:42:28;;;;;;;1.00;0.30;;;;;;;-128.00;-1.00;-1.00;101103;1304;1004887;-32
2023/01/05 06:44:53;;;;;;;1.70;0.40;;;;;;;-128.00;-1.00;-1.00;100889;1302;1005163;-31
2023/01/05 06:47:19;;;;;;;1.20;0.30;;;;;;;-128.00;-1.00;-1.00;100998;1304;1004633;-35
2023/01/05 06:49:45;;;;;;;0.80;0.30;;;;;;;-128.00;-1.00;-1.00;101018;1304;1003727;-35
2023/01/05 06:52:11;;;;;;;5.00;0.50;;;;;;;-128.00;-1.00;-1.00;100944;1304;1004551;-31
2023/01/05 06:54:36;;;;;;;2.10;0.50;;;;;;;-128.00;-1.00;-1.00;100995;1304;1004827;-31
2023/01/05 06:57:02;;;;;;;1.70;0.50;;;;;;;-128.00;-1.00;-1.00;100960;1304;1004782;-34
2023/01/05 06:59:28;;;;;;;1.90;0.30;;;;;;;-128.00;-1.00;-1.00;100948;1304;1004328;-35
2023/01/05 07:01:54;;;;;;;2.40;0.40;;;;;;;-128.00;-1.00;-1.00;100965;1304;1004281;-31
2023/01/05 07:04:20;;;;;;;1.80;0.60;;;;;;;-128.00;-1.00;-1.00;101024;1304;1003935;-35
2023/01/05 07:06:46;;;;;;;1.40;0.40;;;;;;;-128.00;-1.00;-1.00;101097;1304;1004566;-35
2023/01/05 07:09:12;;;;;;;1.10;0.10;;;;;;;-128.00;-1.00;-1.00;100965;1304;1005238;-35
2023/01/05 07:11:37;;;;;;;0.10;0.10;;;;;;;-128.00;-1.00;-1.00;101000;1304;1004818;-31
2023/01/05 07:14:03;;;;;;;0.80;0.10;;;;;;;-128.00;-1.00;-1.00;100970;1304;1004792;-32
2023/01/05 07:16:29;;;;;;;4.20;0.50;;;;;;;-128.00;-1.00;-1.00;101038;1304;1004329;-36
2023/01/05 07:18:55;;;;;;;2.30;0.30;;;;;;;-128.00;-1.00;-1.00;100974;1304;1004255;-35
2023/01/05 07:21:20;;;;;;;1.00;0.30;;;;;;;-128.00;-1.00;-1.00;100940;1304;1003611;-31
2023/01/05 07:23:46;;;;;;;9.40;0.90;;;;;;;-128.00;-1.00;-1.00;101010;1304;1004469;-36
2023/01/05 07:26:12;;;;;;;3.70;0.70;;;;;;;-128.00;-1.00;-1.00;101006;1304;1004368;-33
2023/01/05 07:28:38;;;;;;;7.50;0.70;;;;;;;-128.00;-1.00;-1.00;100977;1304;1004801;-32
2023/01/05 07:31:06;;;;;;;3.10;0.80;;;;;;;-128.00;-1.00;-1.00;100911;1304;1004535;-31
2023/01/05 07:33:31;;;;;;;2.70;0.50;;;;;;;-128.00;-1.00;-1.00;100799;1305;1003676;-31
2023/01/05 07:36:01;;;;;;;2.90;0.40;;;;;;;-128.00;-1.00;-1.00;101026;1304;1004415;-33
2023/01/05 07:38:27;;;;;;;1.60;0.80;;;;;;;-128.00;-1.00;-1.00;101021;1304;1005356;-31
2023/01/05 07:40:53;;;;;;;0.10;0.10;;;;;;;-128.00;-1.00;-1.00;101042;1304;1004522;-32
2023/01/05 07:43:18;;;;;;;2.20;0.90;;;;;;;-128.00;-1.00;-1.00;100896;1304;1004652;-36
2023/01/05 07:45:44;;;;;;;4.70;1.30;;;;;;;-128.00;-1.00;-1.00;100895;1304;1004393;-32
2023/01/05 07:48:10;;;;;;;1.40;0.40;;;;;;;-128.00;-1.00;-1.00;100898;1304;1004226;-36
2023/01/05 07:50:35;;;;;;;3.20;0.30;;;;;;;-128.00;-1.00;-1.00;101044;1304;1004893;-35
2023/01/05 07:53:01;;;;;;;5.70;0.70;;;;;;;-128.00;-1.00;-1.00;101026;1304;1004939;-36
2023/01/05 07:55:27;;;;;;;4.30;0.70;;;;;;;-128.00;-1.00;-1.00;100934;1304;1004122;-31
2023/01/05 07:57:52;;;;;;;2.30;0.50;;;;;;;-128.00;-1.00;-1.00;100954;1304;1003884;-32
2023/01/05 08:00:18;;;;;;;3.20;0.80;;;;;;;-128.00;-1.00;-1.00;100967;1304;1004616;-31
2023/01/05 08:02:45;;;;;;;5.30;1.00;;;;;;;-128.00;-1.00;-1.00;100951;1304;1004206;-31
2023/01/05 08:05:10;;;;;;;2.40;0.90;;;;;;;-128.00;-1.00;-1.00;101055;1304;1004129;-31
2023/01/05 08:07:36;;;;;;;3.40;0.50;;;;;;;-128.00;-1.00;-1.00;100964;1304;1004844;-35
2023/01/05 08:12:31;;;;;;;2.10;0.70;;;;;;;-128.00;-1.00;-1.00;100889;1304;1003761;-35
2023/01/05 08:14:58;;;;;;;2.00;0.50;;;;;;;-128.00;-1.00;-1.00;100999;1304;1004737;-35
2023/01/05 08:17:24;;;;;;;0.60;0.40;;;;;;;-128.00;-1.00;-1.00;100965;1304;1004027;-35
2023/01/05 08:19:49;;;;;;;2.70;0.50;;;;;;;-128.00;-1.00;-1.00;100924;1304;1004890;-31
2023/01/05 08:22:15;;;;;;;1.40;0.60;;;;;;;-128.00;-1.00;-1.00;101085;1305;1003724;-31
2023/01/05 08:24:41;;;;;;;1.10;0.60;;;;;;;-128.00;-1.00;-1.00;100939;1304;1004440;-31
2023/01/05 08:27:07;;;;;;;1.50;0.50;;;;;;;-128.00;-1.00;-1.00;101060;1304;1006859;-31
2023/01/05 08:29:32;;;;;;;2.00;0.50;;;;;;;-128.00;-1.00;-1.00;101097;1304;1005014;-31
2023/01/05 08:31:58;;;;;;;6.60;0.50;;;;;;;-128.00;-1.00;-1.00;100940;1305;1004853;-35
2023/01/05 08:34:24;;;;;;;4.40;0.90;;;;;;;-128.00;-1.00;-1.00;100849;1304;1004025;-35
2023/01/05 08:36:50;;;;;;;2.70;0.60;;;;;;;-128.00;-1.00;-1.00;101030;1304;1004373;-34
2023/01/05 08:39:16;;;;;;;2.90;0.80;;;;;;;-128.00;-1.00;-1.00;100942;1304;1005212;-36
2023/01/05 08:41:42;;;;;;;8.70;0.50;;;;;;;-128.00;-1.00;-1.00;100918;1304;1004100;-31
2023/01/05 08:44:12;;;;;;;1.30;0.30;;;;;;;-128.00;-1.00;-1.00;100954;1304;1004580;-35
2023/01/05 08:46:38;;;;;;;2.40;0.80;;;;;;;-128.00;-1.00;-1.00;100757;1304;1004483;-37
2023/01/05 08:49:08;;;;;;;3.60;0.60;;;;;;;-128.00;-1.00;-1.00;100987;1304;1004233;-31
2023/01/05 08:51:34;;;;;;;1.90;0.70;;;;;;;-128.00;-1.00;-1.00;100815;1305;1004329;-31
2023/01/05 08:53:59;;;;;;;0.50;0.30;;;;;;;-128.00;-1.00;-1.00;101034;1304;1004778;-35
2023/01/05 08:56:25;;;;;;;9.70;0.50;;;;;;;-128.00;-1.00;-1.00;100960;1304;1004968;-37
2023/01/05 08:58:54;;;;;;;2.90;1.10;;;;;;;-128.00;-1.00;-1.00;100919;1304;1004712;-32
2023/01/05 09:01:20;;;;;;;4.50;0.70;;;;;;;-128.00;-1.00;-1.00;100932;1301;1005030;-35
2023/01/05 09:03:47;;;;;;;1.40;0.80;;;;;;;-128.00;-1.00;-1.00;100994;1304;1004994;-31
2023/01/05 09:06:12;;;;;;;2.90;0.90;;;;;;;-128.00;-1.00;-1.00;100892;1305;1005250;-33
2023/01/05 09:08:39;;;;;;;1.70;0.50;;;;;;;-128.00;-1.00;-1.00;100964;1304;1004964;-31
2023/01/05 09:11:07;;;;;;;1.40;0.50;;;;;;;-128.00;-1.00;-1.00;100909;1305;1003770;-30
2023/01/05 09:13:34;;;;;;;1.50;0.30;;;;;;;-128.00;-1.00;-1.00;100930;1302;1004208;-31
2023/01/05 09:16:07;;;;;;;0.10;0.10;;;;;;;-128.00;-1.00;-1.00;100945;1304;1004033;-31
2023/01/05 09:18:34;;;;;;;3.90;0.80;;;;;;;-128.00;-1.00;-1.00;100987;1302;1003731;-35
2023/01/05 09:20:59;;;;;;;5.10;1.20;;;;;;;-128.00;-1.00;-1.00;100915;1304;1005144;-31
2023/01/05 09:23:25;;;;;;;5.70;1.50;;;;;;;-128.00;-1.00;-1.00;100960;1304;1003685;-30
2023/01/05 09:25:51;;;;;;;3.90;0.90;;;;;;;-128.00;-1.00;-1.00;101017;1304;1003880;-35
2023/01/05 09:28:17;;;;;;;6.90;1.30;;;;;;;-128.00;-1.00;-1.00;100976;1304;1004805;-34
2023/01/05 09:30:43;;;;;;;2.10;0.90;;;;;;;-128.00;-1.00;-1.00;101016;1304;1005091;-34
2023/01/05 09:33:09;;;;;;;22.30;14.80;;;;;;;-128.00;-1.00;-1.00;100907;1304;1004440;-31
2023/01/05 09:35:35;;;;;;;3.20;1.70;;;;;;;-128.00;-1.00;-1.00;100989;1304;1003776;-34
2023/01/05 09:38:00;;;;;;;4.30;1.30;;;;;;;-128.00;-1.00;-1.00;100916;1305;1005329;-35
2023/01/05 09:40:41;;;;;;;4.00;1.20;;;;;;;-128.00;-1.00;-1.00;100985;1304;1004651;-31
2023/01/05 09:43:12;;;;;;;2.40;0.80;;;;;;;-128.00;-1.00;-1.00;100941;1305;1003723;-35
2023/01/05 09:45:38;;;;;;;6.00;1.70;;;;;;;-128.00;-1.00;-1.00;100886;1304;1004556;-31
2023/01/05 09:48:04;;;;;;;7.80;1.30;;;;;;;-128.00;-1.00;-1.00;100950;1304;1004552;-35
2023/01/05 09:50:30;;;;;;;2.20;0.50;;;;;;;-128.00;-1.00;-1.00;100911;1304;1004261;-31
2023/01/05 09:52:56;;;;;;;6.00;1.00;;;;;;;-128.00;-1.00;-1.00;101014;1304;1004635;-35
2023/01/05 09:55:24;;;;;;;4.50;0.60;;;;;;;-128.00;-1.00;-1.00;100961;1304;1004373;-31
2023/01/05 09:57:58;;;;;;;3.20;1.70;;;;;;;-128.00;-1.00;-1.00;101039;1302;1003857;-36
2023/01/05 10:00:24;;;;;;;2.40;0.90;;;;;;;-128.00;-1.00;-1.00;101020;1304;1004720;-32
2023/01/05 10:02:54;;;;;;;1.70;0.80;;;;;;;-128.00;-1.00;-1.00;101040;1304;1003889;-31
2023/01/05 10:05:20;;;;;;;4.30;1.50;;;;;;;-128.00;-1.00;-1.00;100855;1304;1005091;-36
2023/01/05 10:07:51;;;;;;;7.50;1.30;;;;;;;-128.00;-1.00;-1.00;100892;1304;1004481;-36
2023/01/05 10:10:23;;;;;;;3.10;0.80;;;;;;;-128.00;-1.00;-1.00;101081;1301;1003460;-36
2023/01/05 10:15:19;;;;;;;12.70;0.90;;;;;;;-128.00;-1.00;-1.00;100925;1304;1004294;-32
2023/01/05 10:17:45;;;;;;;3.60;0.70;;;;;;;-128.00;-1.00;-1.00;100873;1304;1003528;-36
2023/01/05 10:20:26;;;;;;;4.60;1.20;;;;;;;-128.00;-1.00;-1.00;100897;1304;1005334;-36
2023/01/05 10:23:00;;;;;;;5.60;1.90;;;;;;;-128.00;-1.00;-1.00;100927;1304;1004529;-34
2023/01/05 10:25:33;;;;;;;;;;;;;;;-128.00;-1.00;-1.00;100974;1304;1005126;-32
2023/01/05 10:28:24;;;;;;;3.00;1.10;;;;;;;-128.00;-1.00;-1.00;100961;1304;1003949;-36
2023/01/05 10:30:57;;;;;;;11.40;1.80;;;;;;;-128.00;-1.00;-1.00;100934;1304;1004485;-36
2023/01/05 10:33:47;;;;;;;4.50;1.40;;;;;;;-128.00;-1.00;-1.00;100942;1304;1003255;-31
2023/01/05 10:36:44;;;;;;;13.00;1.30;;;;;;;-128.00;-1.00;-1.00;101017;1304;1004679;-33
2023/01/05 10:39:42;;;;;;;5.50;1.90;;;;;;;-128.00;-1.00;-1.00;100948;1304;1004581;-36
2023/01/05 10:42:16;;;;;;;11.00;1.60;;;;;;;-128.00;-1.00;-1.00;100884;1304;1004617;-32
2023/01/05 10:44:51;;;;;;;6.50;1.90;;;;;;;-128.00;-1.00;-1.00;100998;1304;1004756;-31
2023/01/05 10:47:17;;;;;;;4.00;1.00;;;;;;;-128.00;-1.00;-1.00;101016;1301;1003977;-32
2023/01/05 10:49:44;;;;;;;3.20;1.40;;;;;;;-128.00;-1.00;-1.00;100920;1304;1004383;-31
2023/01/05 10:52:15;;;;;;;5.40;1.90;;;;;;;-128.00;-1.00;-1.00;100911;1304;1004551;-32
2023/01/05 10:54:49;;;;;;;1.40;0.70;;;;;;;-128.00;-1.00;-1.00;101049;1304;1003998;-32
2023/01/05 10:57:31;;;;;;;11.40;1.60;;;;;;;-128.00;-1.00;-1.00;100893;1304;1004424;-31
2023/01/05 11:00:06;;;;;;;5.00;2.10;;;;;;;-128.00;-1.00;-1.00;101033;1304;1005374;-31
2023/01/05 11:02:34;;;;;;;11.50;2.20;;;;;;;-128.00;-1.00;-1.00;100883;1293;1004243;-31
2023/01/05 11:46:41;;;;;;;0.40;0.30;;;;;;;6.03;100.00;98713.74;104334;1303;557617;-35
2023/01/05 11:49:07;;;;;;;0.50;0.40;;;;;;;6.11;100.00;98714.23;104207;1303;426032;-35
2023/01/05 11:51:35;;;;;;;1.10;0.20;;;;;;;6.05;100.00;98704.93;104771;1300;24370;-35
2023/01/05 11:54:00;;;;;;;1.30;0.40;;;;;;;6.22;100.00;98693.39;104694;1285;22659;-31
2023/01/05 11:56:26;;;;;;;0.20;0.20;;;;;;;6.27;100.00;98702.10;104769;1292;23954;-32
2023/01/05 11:58:53;;;;;;;1.90;1.20;;;;;;;6.25;100.00;98707.00;104455;1303;22648;-35
2023/01/05 12:01:41;;;;;;;2.30;1.50;;;;;;;6.29;100.00;98706.69;104704;1289;25433;-36
2023/01/05 12:04:36;;;;;;;1.20;0.70;;;;;;;6.65;100.00;98719.51;104765;1291;22687;-32
2023/01/05 12:07:25;;;;;;;3.20;1.90;;;;;;;6.76;100.00;98724.92;104661;1291;23184;-32
2023/01/05 12:10:01;;;;;;;1.10;0.50;;;;;;;-20.12;79.80;78977.68;103901;1303;1002224;-32
2023/01/05 12:12:49;;;;;;;2.00;0.70;;;;;;;-128.00;-1.00;-1.00;101201;1300;1003715;-36
2023/01/05 12:15:38;;;;;;;0.90;0.50;;;;;;;-128.00;-1.00;-1.00;101091;1303;1004595;-35
2023/01/05 12:18:30;;;;;;;3.90;0.70;;;;;;;-128.00;-1.00;-1.00;101192;1303;1004714;-32
2023/01/05 12:21:06;;;;;;;0.40;0.20;;;;;;;-128.00;-1.00;-1.00;100937;1303;1004435;-32
2023/01/05 12:23:46;;;;;;;0.10;0.10;;;;;;;-128.00;-1.00;-1.00;101083;1303;1003960;-32
2023/01/05 12:26:22;;;;;;;1.90;0.10;;;;;;;-128.00;-1.00;-1.00;100993;1303;1004692;-36
2023/01/05 12:29:05;;;;;;;0.50;0.10;;;;;;;-128.00;-1.00;-1.00;101064;1297;1004187;-36
2023/01/05 12:31:54;;;;;;;1.30;0.60;;;;;;;-128.00;-1.00;-1.00;101003;1300;1003456;-35
2023/01/05 12:34:50;;;;;;;1.00;0.30;;;;;;;-128.00;-1.00;-1.00;101135;1303;1004479;-38
2023/01/05 12:37:38;;;;;;;1.00;0.20;;;;;;;-128.00;-1.00;-1.00;100957;1303;1004372;-32
2023/01/05 12:40:27;;;;;;;2.10;0.80;;;;;;;-128.00;-1.00;-1.00;101147;1303;1005394;-31
2023/01/05 12:43:00;;;;;;;1.00;0.40;;;;;;;-128.00;-1.00;-1.00;101066;1303;1004506;-31
2023/01/05 12:45:45;;;;;;;0.80;0.40;;;;;;;-128.00;-1.00;-1.00;100953;1303;1004703;-31
2023/01/05 12:48:21;;;;;;;1.80;1.10;;;;;;;-128.00;-1.00;-1.00;100940;1304;1004362;-31
2023/01/05 12:50:53;;;;;;;3.40;0.60;;;;;;;-128.00;-1.00;-1.00;100980;1303;1005361;-31
2023/01/05 12:53:31;;;;;;;1.90;1.10;;;;;;;-128.00;-1.00;-1.00;101059;1304;1004519;-35
2023/01/05 12:55:59;;;;;;;3.20;2.00;;;;;;;-128.00;-1.00;-1.00;100922;1303;1004306;-31
2023/01/05 12:58:35;;;;;;;5.00;3.50;;;;;;;-128.00;-1.00;-1.00;100988;1304;1005148;-31
2023/01/05 13:01:01;;;;;;;1.60;0.60;;;;;;;-128.00;-1.00;-1.00;101088;1304;1004457;-30
2023/01/05 13:03:29;;;;;;;0.60;0.30;;;;;;;-128.00;-1.00;-1.00;100978;1304;1003728;-31
2023/01/05 13:06:09;;;;;;;0.80;0.30;;;;;;;-128.00;-1.00;-1.00;100983;1300;1003618;-31
2023/01/05 13:08:38;;;;;;;1.40;0.50;;;;;;;-128.00;-1.00;-1.00;100890;1304;1004125;-35
2023/01/05 13:11:18;;;;;;;2.00;0.40;;;;;;;-128.00;-1.00;-1.00;101074;1303;1004342;-31
2023/01/05 13:13:47;;;;;;;1.30;0.50;;;;;;;-128.00;-1.00;-1.00;101005;1300;1004815;-34
2023/01/05 13:16:27;;;;;;;0.60;0.40;;;;;;;-128.00;-1.00;-1.00;101054;1303;1004917;-34
2023/01/05 13:19:14;;;;;;;2.70;0.50;;;;;;;-128.00;-1.00;-1.00;101052;1303;1004607;-34
2023/01/05 13:21:41;;;;;;;0.70;0.40;;;;;;;-128.00;-1.00;-1.00;101120;1304;1004863;-34
2023/01/05 13:24:10;;;;;;;0.70;0.30;;;;;;;-128.00;-1.00;-1.00;100990;1303;1004660;-35
2023/01/05 13:26:35;;;;;;;1.60;0.30;;;;;;;-128.00;-1.00;-1.00;101137;1303;1003793;-30
2023/01/05 13:29:01;;;;;;;2.90;0.90;;;;;;;-128.00;-1.00;-1.00;101016;1303;1004414;-33